sensor_id;sensor_type;location;lat;lon;timestamp;pressure;altitude;pressure_sealevel;temperature;humidity
71476;BME280;59286;59.274;17.974;2022-08-19T00:01:53;101094.78;;;19.48;87.34
71476;BME280;59286;59.274;17.974;2022-08-19T00:04:23;101076.88;;;19.45;86.80
71476;BME280;59286;59.274;17.974;2022-08-19T00:06:49;101111.28;;;19.69;86.69
71476;BME280;59286;59.274;17.974;2022-08-19T00:09:17;101120.56;;;19.75;86.38
71476;BME280;59286;59.274;17.974;2022-08-19T00:11:43;101098.91;;;19.61;86.69
71476;BME280;59286;59.274;17.974;2022-08-19T00:14:10;101121.22;;;19.72;87.28
71476;BME280;59286;59.274;17.974;2022-08-19T00:16:39;101105.19;;;19.68;87.12
71476;BME280;59286;59.274;17.974;2022-08-19T00:19:05;101116.00;;;19.75;87.27
71476;BME280;59286;59.274;17.974;2022-08-19T00:21:31;101090.06;;;19.57;87.27
71476;BME280;59286;59.274;17.974;2022-08-19T00:23:57;101089.22;;;19.53;87.28
71476;BME280;59286;59.274;17.974;2022-08-19T00:26:27;101118.41;;;19.65;87.61
71476;BME280;59286;59.274;17.974;2022-08-19T00:28:53;101090.25;;;19.48;87.92
71476;BME280;59286;59.274;17.974;2022-08-19T00:31:19;101111.94;;;19.66;87.86
71476;BME280;59286;59.274;17.974;2022-08-19T00:33:44;101123.47;;;19.70;88.34
71476;BME280;59286;59.274;17.974;2022-08-19T00:36:10;101110.94;;;19.70;88.15
71476;BME280;59286;59.274;17.974;2022-08-19T00:38:37;101079.25;;;19.50;88.41
71476;BME280;59286;59.274;17.974;2022-08-19T00:41:05;101105.19;;;19.68;88.50
71476;BME280;59286;59.274;17.974;2022-08-19T00:43:31;101078.84;;;19.48;89.24
71476;BME280;59286;59.274;17.974;2022-08-19T00:45:56;101078.66;;;19.41;90.01
71476;BME280;59286;59.274;17.974;2022-08-19T00:48:22;101087.16;;;19.46;90.26
71476;BME280;59286;59.274;17.974;2022-08-19T00:50:50;101093.50;;;19.57;90.20
71476;BME280;59286;59.274;17.974;2022-08-19T00:53:20;101075.66;;;19.42;90.10
71476;BME280;59286;59.274;17.974;2022-08-19T00:55:48;101051.03;;;19.45;89.47
71476;BME280;59286;59.274;17.974;2022-08-19T00:58:17;101065.69;;;19.55;89.49
71476;BME280;59286;59.274;17.974;2022-08-19T01:00:44;101094.13;;;19.82;88.77
71476;BME280;59286;59.274;17.974;2022-08-19T01:03:11;101070.25;;;19.70;88.74
71476;BME280;59286;59.274;17.974;2022-08-19T01:05:39;101096.53;;;19.87;88.81
71476;BME280;59286;59.274;17.974;2022-08-19T01:08:07;101071.81;;;19.71;89.02
71476;BME280;59286;59.274;17.974;2022-08-19T01:10:37;101104.06;;;19.85;89.14
71476;BME280;59286;59.274;17.974;2022-08-19T01:13:04;101081.41;;;19.75;88.67
71476;BME280;59286;59.274;17.974;2022-08-19T01:15:33;101097.13;;;19.96;88.87
71476;BME280;59286;59.274;17.974;2022-08-19T01:18:07;101104.25;;;19.92;88.61
71476;BME280;59286;59.274;17.974;2022-08-19T01:20:33;101098.59;;;19.93;88.49
71476;BME280;59286;59.274;17.974;2022-08-19T01:22:59;101095.44;;;19.88;89.05
71476;BME280;59286;59.274;17.974;2022-08-19T01:25:32;101092.66;;;19.84;89.23
71476;BME280;59286;59.274;17.974;2022-08-19T01:27:59;101058.59;;;19.59;89.38
71476;BME280;59286;59.274;17.974;2022-08-19T01:30:28;101076.53;;;19.77;89.04
71476;BME280;59286;59.274;17.974;2022-08-19T01:32:54;101062.44;;;19.77;89.14
71476;BME280;59286;59.274;17.974;2022-08-19T01:35:22;101068.53;;;19.77;88.91
71476;BME280;59286;59.274;17.974;2022-08-19T01:37:54;101048.13;;;19.66;89.54
71476;BME280;59286;59.274;17.974;2022-08-19T01:40:22;101090.94;;;19.92;89.23
71476;BME280;59286;59.274;17.974;2022-08-19T01:42:49;101093.78;;;19.99;89.27
71476;BME280;59286;59.274;17.974;2022-08-19T01:45:15;101079.97;;;19.93;88.90
71476;BME280;59286;59.274;17.974;2022-08-19T01:47:40;101072.22;;;19.88;88.48
71476;BME280;59286;59.274;17.974;2022-08-19T01:50:08;101090.84;;;20.04;88.88
71476;BME280;59286;59.274;17.974;2022-08-19T01:52:41;101063.50;;;19.88;88.73
71476;BME280;59286;59.274;17.974;2022-08-19T01:55:15;101087.75;;;20.02;89.12
71476;BME280;59286;59.274;17.974;2022-08-19T01:57:44;101086.19;;;20.01;89.62
71476;BME280;59286;59.274;17.974;2022-08-19T02:00:12;101061.00;;;19.79;89.65
71476;BME280;59286;59.274;17.974;2022-08-19T02:02:40;101087.16;;;19.93;89.93
71476;BME280;59286;59.274;17.974;2022-08-19T02:05:05;101084.34;;;19.86;90.00
71476;BME280;59286;59.274;17.974;2022-08-19T02:07:34;101087.16;;;19.93;90.03
71476;BME280;59286;59.274;17.974;2022-08-19T02:10:08;101056.53;;;19.83;89.93
71476;BME280;59286;59.274;17.974;2022-08-19T02:12:34;101065.28;;;19.84;90.10
71476;BME280;59286;59.274;17.974;2022-08-19T02:15:00;101061.63;;;19.73;90.24
71476;BME280;59286;59.274;17.974;2022-08-19T02:17:27;101084.34;;;19.86;90.32
71476;BME280;59286;59.274;17.974;2022-08-19T02:19:54;101056.72;;;19.75;90.32
71476;BME280;59286;59.274;17.974;2022-08-19T02:22:20;101048.47;;;19.80;89.98
71476;BME280;59286;59.274;17.974;2022-08-19T02:24:45;101063.50;;;19.88;89.68
71476;BME280;59286;59.274;17.974;2022-08-19T02:27:13;101086.03;;;20.09;89.53
71476;BME280;59286;59.274;17.974;2022-08-19T02:29:39;101062.53;;;19.96;89.57
71476;BME280;59286;59.274;17.974;2022-08-19T02:32:04;101059.00;;;19.92;89.58
71476;BME280;59286;59.274;17.974;2022-08-19T02:34:30;101044.53;;;19.89;89.21
71476;BME280;59286;59.274;17.974;2022-08-19T02:36:55;101085.88;;;20.18;89.12
71476;BME280;59286;59.274;17.974;2022-08-19T02:39:21;101084.31;;;20.17;89.27
71476;BME280;59286;59.274;17.974;2022-08-19T02:41:46;101062.25;;;20.01;89.72
71476;BME280;59286;59.274;17.974;2022-08-19T02:44:11;101057.91;;;19.93;89.69
71476;BME280;59286;59.274;17.974;2022-08-19T02:46:37;101061.16;;;20.02;89.98
71476;BME280;59286;59.274;17.974;2022-08-19T02:49:05;101071.94;;;20.09;89.60
71476;BME280;59286;59.274;17.974;2022-08-19T02:51:36;101051.53;;;19.97;89.56
71476;BME280;59286;59.274;17.974;2022-08-19T02:54:04;101044.09;;;19.87;89.78
71476;BME280;59286;59.274;17.974;2022-08-19T02:56:30;101039.19;;;19.74;90.17
71476;BME280;59286;59.274;17.974;2022-08-19T02:58:57;101079.16;;;20.08;90.29
71476;BME280;59286;59.274;17.974;2022-08-19T03:01:31;101083.88;;;20.15;90.08
71476;BME280;59286;59.274;17.974;2022-08-19T03:03:59;101036.63;;;19.93;89.57
71476;BME280;59286;59.274;17.974;2022-08-19T03:06:25;101058.75;;;19.97;89.87
71476;BME280;59286;59.274;17.974;2022-08-19T03:08:51;101076.09;;;20.06;90.04
71476;BME280;59286;59.274;17.974;2022-08-19T03:11:22;101083.38;;;20.09;89.99
71476;BME280;59286;59.274;17.974;2022-08-19T03:13:49;101049.34;;;19.84;89.79
71476;BME280;59286;59.274;17.974;2022-08-19T03:16:17;101075.97;;;20.03;90.46
71476;BME280;59286;59.274;17.974;2022-08-19T03:18:43;101050.69;;;19.93;89.76
71476;BME280;59286;59.274;17.974;2022-08-19T03:21:09;101048.34;;;19.92;89.92
71476;BME280;59286;59.274;17.974;2022-08-19T03:23:35;101068.69;;;20.00;90.08
71476;BME280;59286;59.274;17.974;2022-08-19T03:26:05;101087.66;;;20.14;89.49
71476;BME280;59286;59.274;17.974;2022-08-19T03:28:31;101073.75;;;20.05;89.74
71476;BME280;59286;59.274;17.974;2022-08-19T03:31:06;101082.66;;;20.12;90.00
71476;BME280;59286;59.274;17.974;2022-08-19T03:33:35;101082.75;;;20.16;89.20
71476;BME280;59286;59.274;17.974;2022-08-19T03:36:19;101066.34;;;20.14;89.07
71476;BME280;59286;59.274;17.974;2022-08-19T03:38:53;101088.28;;;20.23;89.11
71476;BME280;59286;59.274;17.974;2022-08-19T03:41:32;101076.06;;;20.22;89.09
71476;BME280;59286;59.274;17.974;2022-08-19T03:44:01;101101.31;;;20.28;89.64
71476;BME280;59286;59.274;17.974;2022-08-19T03:46:29;101073.84;;;20.08;89.38
71476;BME280;59286;59.274;17.974;2022-08-19T03:48:57;101054.19;;;19.97;89.41
71476;BME280;59286;59.274;17.974;2022-08-19T03:51:29;101095.13;;;20.24;89.99
71476;BME280;59286;59.274;17.974;2022-08-19T03:53:56;101095.22;;;20.27;90.08
71476;BME280;59286;59.274;17.974;2022-08-19T03:56:22;101064.66;;;20.06;89.79
71476;BME280;59286;59.274;17.974;2022-08-19T03:58:50;101081.56;;;20.29;88.80
71476;BME280;59286;59.274;17.974;2022-08-19T04:01:18;101105.56;;;20.48;88.32
71476;BME280;59286;59.274;17.974;2022-08-19T04:03:45;101083.19;;;20.34;88.78
71476;BME280;59286;59.274;17.974;2022-08-19T04:06:20;101110.22;;;20.51;88.55
71476;BME280;59286;59.274;17.974;2022-08-19T04:08:48;101071.47;;;20.19;88.80
71476;BME280;59286;59.274;17.974;2022-08-19T04:11:20;101094.00;;;20.41;88.58
71476;BME280;59286;59.274;17.974;2022-08-19T04:13:47;101077.09;;;20.33;88.26
71476;BME280;59286;59.274;17.974;2022-08-19T04:16:12;101083.97;;;20.34;88.40
71476;BME280;59286;59.274;17.974;2022-08-19T04:18:39;101101.91;;;20.37;88.49
71476;BME280;59286;59.274;17.974;2022-08-19T04:21:06;101109.19;;;20.40;88.87
71476;BME280;59286;59.274;17.974;2022-08-19T04:23:33;101118.09;;;20.48;88.86
71476;BME280;59286;59.274;17.974;2022-08-19T04:25:59;101120.88;;;20.51;88.40
71476;BME280;59286;59.274;17.974;2022-08-19T04:28:25;101103.88;;;20.40;88.32
71476;BME280;59286;59.274;17.974;2022-08-19T04:30:52;101103.25;;;20.47;88.19
71476;BME280;59286;59.274;17.974;2022-08-19T04:33:22;101121.59;;;20.67;87.48
71476;BME280;59286;59.274;17.974;2022-08-19T04:35:49;101123.97;;;20.72;87.53
71476;BME280;59286;59.274;17.974;2022-08-19T04:38:16;101082.66;;;20.44;87.48
71476;BME280;59286;59.274;17.974;2022-08-19T04:40:45;101097.16;;;20.46;87.83
71476;BME280;59286;59.274;17.974;2022-08-19T04:43:30;101122.88;;;20.73;87.47
71476;BME280;59286;59.274;17.974;2022-08-19T04:45:56;101110.50;;;20.65;87.26
71476;BME280;59286;59.274;17.974;2022-08-19T04:48:23;101121.16;;;20.65;87.24
71476;BME280;59286;59.274;17.974;2022-08-19T04:50:58;101128.19;;;20.73;86.56
71476;BME280;59286;59.274;17.974;2022-08-19T04:53:34;101116.63;;;20.66;87.20
71476;BME280;59286;59.274;17.974;2022-08-19T04:56:08;101093.81;;;20.49;87.19
71476;BME280;59286;59.274;17.974;2022-08-19T04:58:35;101128.03;;;20.66;87.28
71476;BME280;59286;59.274;17.974;2022-08-19T05:01:01;101101.09;;;20.52;87.08
71476;BME280;59286;59.274;17.974;2022-08-19T05:03:26;101119.41;;;20.73;86.96
71476;BME280;59286;59.274;17.974;2022-08-19T05:05:52;101122.69;;;20.66;87.40
71476;BME280;59286;59.274;17.974;2022-08-19T05:08:20;101096.47;;;20.49;87.48
71476;BME280;59286;59.274;17.974;2022-08-19T05:10:49;101125.19;;;20.75;87.32
71476;BME280;59286;59.274;17.974;2022-08-19T05:13:16;101111.34;;;20.69;87.52
71476;BME280;59286;59.274;17.974;2022-08-19T05:15:43;101104.31;;;20.61;87.33
71476;BME280;59286;59.274;17.974;2022-08-19T05:18:09;101112.81;;;20.67;87.76
71476;BME280;59286;59.274;17.974;2022-08-19T05:20:53;101107.41;;;20.63;88.32
71476;BME280;59286;59.274;17.974;2022-08-19T05:23:38;101102.44;;;20.62;88.28
71476;BME280;59286;59.274;17.974;2022-08-19T05:26:04;101104.72;;;20.79;87.41
71476;BME280;59286;59.274;17.974;2022-08-19T05:28:30;101107.63;;;20.74;87.13
71476;BME280;59286;59.274;17.974;2022-08-19T05:30:55;101090.53;;;20.75;86.77
71476;BME280;59286;59.274;17.974;2022-08-19T05:33:22;101111.63;;;20.83;86.97
71476;BME280;59286;59.274;17.974;2022-08-19T05:35:48;101116.72;;;20.88;87.06
71476;BME280;59286;59.274;17.974;2022-08-19T05:38:15;101105.56;;;20.83;86.73
71476;BME280;59286;59.274;17.974;2022-08-19T05:40:42;101109.06;;;21.06;86.50
71476;BME280;59286;59.274;17.974;2022-08-19T05:43:11;101086.47;;;21.00;85.71
71476;BME280;59286;59.274;17.974;2022-08-19T05:45:40;101115.31;;;21.33;84.91
71476;BME280;59286;59.274;17.974;2022-08-19T05:48:05;101077.44;;;21.24;84.67
71476;BME280;59286;59.274;17.974;2022-08-19T05:50:30;101064.50;;;21.26;83.84
71476;BME280;59286;59.274;17.974;2022-08-19T05:52:56;101065.75;;;21.32;83.74
71476;BME280;59286;59.274;17.974;2022-08-19T05:55:21;101093.09;;;21.48;83.22
71476;BME280;59286;59.274;17.974;2022-08-19T05:57:49;101082.47;;;21.51;82.49
71476;BME280;59286;59.274;17.974;2022-08-19T06:00:15;101078.88;;;21.63;82.68
71476;BME280;59286;59.274;17.974;2022-08-19T06:02:40;101105.78;;;21.99;81.51
71476;BME280;59286;59.274;17.974;2022-08-19T06:05:07;101106.81;;;22.17;81.11
71476;BME280;59286;59.274;17.974;2022-08-19T06:07:35;101068.09;;;22.04;80.04
71476;BME280;59286;59.274;17.974;2022-08-19T06:10:00;101075.34;;;22.30;79.81
71476;BME280;59286;59.274;17.974;2022-08-19T06:12:32;101074.31;;;22.38;79.24
71476;BME280;59286;59.274;17.974;2022-08-19T06:15:01;101087.28;;;22.66;78.62
71476;BME280;59286;59.274;17.974;2022-08-19T06:17:27;101088.31;;;22.87;77.48
71476;BME280;59286;59.274;17.974;2022-08-19T06:19:55;101095.78;;;23.04;76.62
71476;BME280;59286;59.274;17.974;2022-08-19T06:22:21;101080.91;;;23.10;75.66
71476;BME280;59286;59.274;17.974;2022-08-19T06:24:46;101059.72;;;23.28;75.74
71476;BME280;59286;59.274;17.974;2022-08-19T06:27:11;101075.19;;;23.45;74.57
71476;BME280;59286;59.274;17.974;2022-08-19T06:29:37;101089.25;;;23.79;74.05
71476;BME280;59286;59.274;17.974;2022-08-19T06:32:03;101067.88;;;23.86;72.25
71476;BME280;59286;59.274;17.974;2022-08-19T06:34:31;101078.00;;;24.10;72.72
71476;BME280;59286;59.274;17.974;2022-08-19T06:36:59;101094.25;;;24.38;70.98
71476;BME280;59286;59.274;17.974;2022-08-19T06:39:31;101085.13;;;24.46;70.02
71476;BME280;59286;59.274;17.974;2022-08-19T06:42:00;101073.66;;;24.53;69.20
71476;BME280;59286;59.274;17.974;2022-08-19T06:44:28;101081.44;;;24.75;68.41
71476;BME280;59286;59.274;17.974;2022-08-19T06:46:55;101094.50;;;24.87;68.17
71476;BME280;59286;59.274;17.974;2022-08-19T06:49:21;101090.34;;;25.04;67.00
71476;BME280;59286;59.274;17.974;2022-08-19T06:51:48;101109.94;;;25.33;66.67
71476;BME280;59286;59.274;17.974;2022-08-19T06:54:15;101100.72;;;25.20;67.41
71476;BME280;59286;59.274;17.974;2022-08-19T06:56:42;101088.88;;;25.42;66.60
71476;BME280;59286;59.274;17.974;2022-08-19T06:59:14;101083.94;;;25.54;65.96
71476;BME280;59286;59.274;17.974;2022-08-19T07:01:48;101107.72;;;25.80;65.39
71476;BME280;59286;59.274;17.974;2022-08-19T07:04:17;101106.94;;;25.83;64.21
71476;BME280;59286;59.274;17.974;2022-08-19T07:06:43;101062.06;;;25.56;65.40
71476;BME280;59286;59.274;17.974;2022-08-19T07:09:11;101082.78;;;25.80;65.79
71476;BME280;59286;59.274;17.974;2022-08-19T07:11:37;101078.91;;;26.06;64.75
71476;BME280;59286;59.274;17.974;2022-08-19T07:14:03;101095.41;;;26.25;64.01
71476;BME280;59286;59.274;17.974;2022-08-19T07:16:29;101110.72;;;26.42;63.62
71476;BME280;59286;59.274;17.974;2022-08-19T07:18:56;101093.84;;;26.35;62.49
71476;BME280;59286;59.274;17.974;2022-08-19T07:21:24;101109.91;;;26.52;62.87
71476;BME280;59286;59.274;17.974;2022-08-19T07:23:53;101103.81;;;26.41;63.00
71476;BME280;59286;59.274;17.974;2022-08-19T07:26:29;101097.22;;;26.56;62.63
71476;BME280;59286;59.274;17.974;2022-08-19T07:28:56;101077.97;;;26.68;61.84
71476;BME280;59286;59.274;17.974;2022-08-19T07:31:24;101100.22;;;26.87;60.96
71476;BME280;59286;59.274;17.974;2022-08-19T07:33:51;101102.47;;;26.92;60.48
71476;BME280;59286;59.274;17.974;2022-08-19T07:36:20;101117.34;;;27.14;61.04
71476;BME280;59286;59.274;17.974;2022-08-19T07:38:48;101118.75;;;27.43;59.86
71476;BME280;59286;59.274;17.974;2022-08-19T07:41:19;101083.91;;;27.15;59.06
71476;BME280;59286;59.274;17.974;2022-08-19T07:43:45;101113.50;;;27.18;59.52
71476;BME280;59286;59.274;17.974;2022-08-19T07:46:11;101112.72;;;27.18;60.02
71476;BME280;59286;59.274;17.974;2022-08-19T07:48:40;101110.41;;;27.20;59.65
71476;BME280;59286;59.274;17.974;2022-08-19T07:51:06;101101.63;;;27.09;59.33
71476;BME280;59286;59.274;17.974;2022-08-19T07:53:34;101095.34;;;27.29;60.48
71476;BME280;59286;59.274;17.974;2022-08-19T07:56:00;101092.81;;;27.63;59.00
71476;BME280;59286;59.274;17.974;2022-08-19T07:58:31;101120.75;;;27.83;58.49
71476;BME280;59286;59.274;17.974;2022-08-19T08:00:59;101109.88;;;27.94;58.46
71476;BME280;59286;59.274;17.974;2022-08-19T08:03:28;101099.44;;;27.99;58.29
71476;BME280;59286;59.274;17.974;2022-08-19T08:06:13;101090.41;;;28.16;59.65
71476;BME280;59286;59.274;17.974;2022-08-19T08:09:09;101069.78;;;27.99;56.39
71476;BME280;59286;59.274;17.974;2022-08-19T08:12:02;101088.13;;;28.15;56.34
71476;BME280;59286;59.274;17.974;2022-08-19T08:14:33;101108.94;;;28.11;56.67
71476;BME280;59286;59.274;17.974;2022-08-19T08:17:01;101085.25;;;27.95;56.56
71476;BME280;59286;59.274;17.974;2022-08-19T08:19:27;101084.94;;;27.83;55.73
71476;BME280;59286;59.274;17.974;2022-08-19T08:21:58;101064.66;;;27.71;56.36
71476;BME280;59286;59.274;17.974;2022-08-19T08:24:25;101075.66;;;27.87;55.47
71476;BME280;59286;59.274;17.974;2022-08-19T08:26:53;101057.00;;;27.62;56.15
71476;BME280;59286;59.274;17.974;2022-08-19T08:29:19;101083.19;;;27.62;56.54
71476;BME280;59286;59.274;17.974;2022-08-19T08:31:46;101089.38;;;27.59;57.85
71476;BME280;59286;59.274;17.974;2022-08-19T08:34:13;101057.09;;;27.55;56.77
71476;BME280;59286;59.274;17.974;2022-08-19T08:36:42;101087.53;;;27.97;55.51
71476;BME280;59286;59.274;17.974;2022-08-19T08:39:09;101090.19;;;28.00;54.92
71476;BME280;59286;59.274;17.974;2022-08-19T08:41:54;101105.97;;;28.02;54.74
71476;BME280;59286;59.274;17.974;2022-08-19T08:44:51;101085.34;;;27.81;55.13
71476;BME280;59286;59.274;17.974;2022-08-19T08:47:15;101057.56;;;27.88;53.49
71476;BME280;59286;59.274;17.974;2022-08-19T08:49:50;101098.91;;;28.15;53.11
71476;BME280;59286;59.274;17.974;2022-08-19T08:52:22;101081.00;;;27.94;54.77
71476;BME280;59286;59.274;17.974;2022-08-19T08:54:54;101080.47;;;28.10;54.52
71476;BME280;59286;59.274;17.974;2022-08-19T08:57:36;101097.66;;;28.23;54.45
71476;BME280;59286;59.274;17.974;2022-08-19T09:00:07;101097.09;;;28.38;52.75
71476;BME280;59286;59.274;17.974;2022-08-19T09:02:42;101096.41;;;28.34;52.49
71476;BME280;59286;59.274;17.974;2022-08-19T09:05:09;101090.09;;;28.44;52.94
71476;BME280;59286;59.274;17.974;2022-08-19T09:08:04;101102.06;;;28.43;53.41
71476;BME280;59286;59.274;17.974;2022-08-19T09:32:46;101057.50;;;28.65;50.73
71476;BME280;59286;59.274;17.974;2022-08-19T09:35:12;101074.41;;;28.70;52.25
71476;BME280;59286;59.274;17.974;2022-08-19T09:37:38;101075.22;;;28.66;52.08
71476;BME280;59286;59.274;17.974;2022-08-19T09:40:04;101064.88;;;28.61;52.08
71476;BME280;59286;59.274;17.974;2022-08-19T09:42:30;101085.84;;;28.81;51.67
71476;BME280;59286;59.274;17.974;2022-08-19T09:44:55;101088.78;;;28.90;51.14
71476;BME280;59286;59.274;17.974;2022-08-19T09:50:43;101072.25;;;28.57;52.23
71476;BME280;59286;59.274;17.974;2022-08-19T09:53:08;101040.34;;;28.49;51.19
71476;BME280;59286;59.274;17.974;2022-08-19T09:55:33;101069.59;;;28.84;50.73
71476;BME280;59286;59.274;17.974;2022-08-19T09:58:00;101039.22;;;28.77;49.10
71476;BME280;59286;59.274;17.974;2022-08-19T10:00:31;101069.00;;;29.00;47.77
71476;BME280;59286;59.274;17.974;2022-08-19T10:02:56;101066.97;;;29.04;47.11
71476;BME280;59286;59.274;17.974;2022-08-19T10:05:22;101033.88;;;29.00;47.92
71476;BME280;59286;59.274;17.974;2022-08-19T10:08:06;101055.41;;;29.30;47.85
71476;BME280;59286;59.274;17.974;2022-08-19T10:10:35;101035.34;;;29.31;46.87
71476;BME280;59286;59.274;17.974;2022-08-19T10:13:01;101044.53;;;29.37;45.54
71476;BME280;59286;59.274;17.974;2022-08-19T10:15:26;101037.22;;;29.34;45.38
71476;BME280;59286;59.274;17.974;2022-08-19T10:17:52;101045.56;;;29.43;46.40
71476;BME280;59286;59.274;17.974;2022-08-19T10:20:17;101058.25;;;29.69;45.02
71476;BME280;59286;59.274;17.974;2022-08-19T10:22:43;101032.25;;;29.55;45.71
71476;BME280;59286;59.274;17.974;2022-08-19T10:25:09;101060.47;;;29.78;45.01
71476;BME280;59286;59.274;17.974;2022-08-19T10:27:34;101049.00;;;29.70;45.21
71476;BME280;59286;59.274;17.974;2022-08-19T10:30:00;101044.66;;;29.76;43.93
71476;BME280;59286;59.274;17.974;2022-08-19T10:32:26;101062.03;;;29.75;43.48
71476;BME280;59286;59.274;17.974;2022-08-19T10:34:52;101028.91;;;29.48;44.34
71476;BME280;59286;59.274;17.974;2022-08-19T10:37:18;101056.22;;;29.53;44.92
71476;BME280;59286;59.274;17.974;2022-08-19T10:39:45;101053.97;;;29.48;45.55
71476;BME280;59286;59.274;17.974;2022-08-19T10:42:13;101037.47;;;29.43;44.86
71476;BME280;59286;59.274;17.974;2022-08-19T10:44:39;101055.19;;;29.67;43.56
71476;BME280;59286;59.274;17.974;2022-08-19T10:47:05;101049.84;;;29.63;44.32
71476;BME280;59286;59.274;17.974;2022-08-19T10:49:30;101062.69;;;29.59;43.99
71476;BME280;59286;59.274;17.974;2022-08-19T10:51:57;101024.38;;;29.41;42.67
71476;BME280;59286;59.274;17.974;2022-08-19T10:54:41;101046.13;;;29.57;42.83
71476;BME280;59286;59.274;17.974;2022-08-19T10:57:25;101056.78;;;29.65;42.92
71476;BME280;59286;59.274;17.974;2022-08-19T10:59:55;101037.72;;;29.75;43.94
71476;BME280;59286;59.274;17.974;2022-08-19T11:02:33;101047.56;;;29.85;42.13
71476;BME280;59286;59.274;17.974;2022-08-19T11:04:58;101037.22;;;29.80;42.19
71476;BME280;59286;59.274;17.974;2022-08-19T11:07:24;101039.13;;;29.83;42.70
71476;BME280;59286;59.274;17.974;2022-08-19T11:09:51;101027.09;;;29.84;41.70
71476;BME280;59286;59.274;17.974;2022-08-19T11:12:17;101025.66;;;29.99;42.65
71476;BME280;59286;59.274;17.974;2022-08-19T11:14:44;101038.09;;;30.16;41.17
71476;BME280;59286;59.274;17.974;2022-08-19T11:17:10;101036.13;;;29.97;40.83
71476;BME280;59286;59.274;17.974;2022-08-19T11:19:38;101029.78;;;30.07;40.34
71476;BME280;59286;59.274;17.974;2022-08-19T11:22:04;101022.69;;;30.13;40.96
71476;BME280;59286;59.274;17.974;2022-08-19T11:24:33;101029.91;;;30.20;39.73
71476;BME280;59286;59.274;17.974;2022-08-19T11:27:06;101014.25;;;30.11;40.04
71476;BME280;59286;59.274;17.974;2022-08-19T11:29:33;101026.09;;;30.17;40.40
71476;BME280;59286;59.274;17.974;2022-08-19T11:31:59;101039.56;;;30.21;40.40
71476;BME280;59286;59.274;17.974;2022-08-19T11:34:27;101004.66;;;29.87;40.17
71476;BME280;59286;59.274;17.974;2022-08-19T11:36:54;101027.75;;;29.92;39.95
71476;BME280;59286;59.274;17.974;2022-08-19T11:39:24;101047.13;;;30.10;39.91
71476;BME280;59286;59.274;17.974;2022-08-19T11:41:50;101001.47;;;29.92;41.25
71476;BME280;59286;59.274;17.974;2022-08-19T11:44:15;101017.56;;;29.99;41.07
71476;BME280;59286;59.274;17.974;2022-08-19T11:46:42;101020.34;;;29.96;40.87
71476;BME280;59286;59.274;17.974;2022-08-19T11:49:12;101024.19;;;29.75;40.77
71476;BME280;59286;59.274;17.974;2022-08-19T11:51:38;101024.59;;;29.74;41.15
71476;BME280;59286;59.274;17.974;2022-08-19T11:54:05;101043.03;;;29.79;42.02
71476;BME280;59286;59.274;17.974;2022-08-19T11:56:31;101039.59;;;29.78;41.69
71476;BME280;59286;59.274;17.974;2022-08-19T11:58:56;101040.22;;;29.86;41.78
71476;BME280;59286;59.274;17.974;2022-08-19T12:01:23;101025.72;;;29.76;42.54
71476;BME280;59286;59.274;17.974;2022-08-19T12:03:51;101007.28;;;29.71;41.96
71476;BME280;59286;59.274;17.974;2022-08-19T12:06:22;101030.94;;;29.87;41.43
71476;BME280;59286;59.274;17.974;2022-08-19T12:08:52;101006.88;;;29.92;42.24
71476;BME280;59286;59.274;17.974;2022-08-19T12:11:19;101040.38;;;30.18;40.52
71476;BME280;59286;59.274;17.974;2022-08-19T12:13:45;101005.31;;;29.95;41.62
71476;BME280;59286;59.274;17.974;2022-08-19T12:16:17;101029.13;;;30.00;39.94
71476;BME280;59286;59.274;17.974;2022-08-19T12:18:43;101010.31;;;29.73;39.40
71476;BME280;59286;59.274;17.974;2022-08-19T12:21:14;101038.91;;;29.74;40.33
71476;BME280;59286;59.274;17.974;2022-08-19T12:23:41;101049.56;;;29.81;41.25
71476;BME280;59286;59.274;17.974;2022-08-19T12:26:09;101038.34;;;29.83;40.51
71476;BME280;59286;59.274;17.974;2022-08-19T12:28:35;101012.56;;;29.55;41.20
71476;BME280;59286;59.274;17.974;2022-08-19T12:31:01;101010.44;;;29.66;39.96
71476;BME280;59286;59.274;17.974;2022-08-19T12:33:26;101039.13;;;29.83;41.16
71476;BME280;59286;59.274;17.974;2022-08-19T12:35:53;101028.94;;;29.91;39.77
71476;BME280;59286;59.274;17.974;2022-08-19T12:38:19;101016.44;;;29.77;41.05
71476;BME280;59286;59.274;17.974;2022-08-19T12:40:46;101051.19;;;29.98;41.04
71476;BME280;59286;59.274;17.974;2022-08-19T12:43:12;101015.72;;;29.73;40.99
71476;BME280;59286;59.274;17.974;2022-08-19T12:45:39;101037.22;;;29.80;41.18
71476;BME280;59286;59.274;17.974;2022-08-19T12:48:04;101011.50;;;29.49;41.70
71476;BME280;59286;59.274;17.974;2022-08-19T12:50:30;101026.00;;;29.58;41.50
71476;BME280;59286;59.274;17.974;2022-08-19T12:52:56;101023.50;;;29.48;40.76
71476;BME280;59286;59.274;17.974;2022-08-19T12:55:22;101006.28;;;29.38;41.69
71476;BME280;59286;59.274;17.974;2022-08-19T12:57:48;101005.59;;;29.34;42.23
71476;BME280;59286;59.274;17.974;2022-08-19T13:00:18;101024.44;;;29.61;42.14
71476;BME280;59286;59.274;17.974;2022-08-19T13:02:47;101007.94;;;29.55;42.72
71476;BME280;59286;59.274;17.974;2022-08-19T13:05:17;101031.81;;;29.80;42.63
71476;BME280;59286;59.274;17.974;2022-08-19T13:07:45;101008.50;;;29.67;41.05
71476;BME280;59286;59.274;17.974;2022-08-19T13:10:15;101028.28;;;29.60;41.50
71476;BME280;59286;59.274;17.974;2022-08-19T13:12:43;100997.63;;;29.47;42.47